createdAt,value
2018-01-14T21:25:50.592Z,18.28
2018-01-14T21:26:50.462Z,18.41
2018-01-14T21:27:50.463Z,18.61
2018-01-14T21:28:50.466Z,18.85
2018-01-14T21:29:50.468Z,19.11
2018-01-14T21:30:50.465Z,19.33
2018-01-14T21:31:50.595Z,19.54
2018-01-14T21:32:50.523Z,19.73
2018-01-14T21:33:50.467Z,19.87
2018-01-14T21:34:50.466Z,19.99
2018-01-14T21:35:50.484Z,20.08
2018-01-14T21:36:50.471Z,20.16
2018-01-14T21:37:50.607Z,20.23
2018-01-14T21:38:50.507Z,20.27
2018-01-14T21:39:53.641Z,20.3
2018-01-14T21:40:50.475Z,20.35
2018-01-14T21:42:19.794Z,20.6
2018-01-14T21:43:19.668Z,20.75
2018-01-14T21:44:19.669Z,20.87
2018-01-14T21:45:19.672Z,20.95
2018-01-14T21:46:19.674Z,21.02
2018-01-14T21:47:19.667Z,21.05
2018-01-14T21:48:19.705Z,21.11
2018-01-14T21:49:19.672Z,21.13
2018-01-14T21:50:19.679Z,21.17
2018-01-14T21:51:19.718Z,21.17
2018-01-14T21:52:19.674Z,21.18
2018-01-14T21:53:19.673Z,21.18
2018-01-14T21:54:19.708Z,21.18
2018-01-14T21:55:19.676Z,21.18
2018-01-14T21:56:19.679Z,21.24
2018-01-14T21:57:19.681Z,21.25
2018-01-14T21:58:19.683Z,21.22
2018-01-14T21:59:19.677Z,21.2
2018-01-14T22:00:20.024Z,21.16
2018-01-14T22:01:19.685Z,21.18
2018-01-14T22:02:19.683Z,21.18
2018-01-14T22:03:19.681Z,21.19
2018-01-14T22:04:19.685Z,21.22
2018-01-14T22:05:19.681Z,21.24
2018-01-14T22:06:19.796Z,21.27
2018-01-14T22:07:19.695Z,21.3
2018-01-14T22:08:19.685Z,21.3
2018-01-14T22:09:19.711Z,21.33
2018-01-14T22:10:19.689Z,21.33
2018-01-14T22:11:19.689Z,21.33
2018-01-14T22:12:19.730Z,21.33
